createdAt,value
2022-08-26T00:03:42.624Z,1000.47
2022-08-26T00:09:26.343Z,1000.48
2022-08-26T00:15:11.617Z,1000.48
2022-08-26T00:20:54.924Z,1000.53
2022-08-26T00:26:38.807Z,1000.62
2022-08-26T00:32:27.082Z,1000.61
2022-08-26T00:38:11.733Z,1000.6
2022-08-26T00:43:55.790Z,1000.59
2022-08-26T00:49:44.733Z,1000.56
2022-08-26T00:55:38.115Z,1000.58
2022-08-26T01:01:24.006Z,1000.55
2022-08-26T01:07:08.443Z,1000.65
2022-08-26T01:12:53.182Z,1000.68
2022-08-26T01:18:38.030Z,1000.66
2022-08-26T01:24:22.006Z,1000.61
2022-08-26T01:30:10.536Z,1000.66
2022-08-26T01:35:54.247Z,1000.68
2022-08-26T01:41:38.806Z,1000.68
2022-08-26T01:47:27.444Z,1000.7
2022-08-26T01:53:16.298Z,1000.68
2022-08-26T01:59:01.877Z,1000.64
2022-08-26T02:04:47.215Z,1000.69
2022-08-26T02:10:34.486Z,1000.73
2022-08-26T02:16:24.666Z,1000.78
2022-08-26T02:22:13.274Z,1000.73
2022-08-26T02:27:57.656Z,1000.76
2022-08-26T02:33:44.286Z,1000.67
2022-08-26T02:39:28.304Z,1000.75
2022-08-26T02:45:23.015Z,1000.71
2022-08-26T02:51:06.450Z,1000.72
2022-08-26T02:56:49.914Z,1000.71
2022-08-26T03:02:34.975Z,1000.67
2022-08-26T03:08:18.512Z,1000.66
2022-08-26T03:14:03.454Z,1000.61
2022-08-26T03:19:50.732Z,1000.62
2022-08-26T03:25:41.239Z,1000.62
2022-08-26T03:31:25.647Z,1000.59
2022-08-26T03:37:11.129Z,1000.53
2022-08-26T03:42:56.334Z,1000.43
2022-08-26T03:48:42.459Z,1000.53
2022-08-26T03:54:29.606Z,1000.57
2022-08-26T04:00:19.246Z,1000.58
2022-08-26T04:06:02.570Z,1000.64
2022-08-26T04:11:51.742Z,1000.69
2022-08-26T04:17:40.719Z,1000.63
2022-08-26T04:23:24.072Z,1000.63
2022-08-26T04:29:10.521Z,1000.64
2022-08-26T04:34:55.218Z,1000.66
2022-08-26T04:40:47.547Z,1000.54
2022-08-26T04:46:31.254Z,1000.61
2022-08-26T04:52:14.705Z,1000.68
2022-08-26T04:58:00.834Z,1000.72
2022-08-26T05:03:45.795Z,1000.79
2022-08-26T05:09:29.166Z,1000.78
2022-08-26T05:15:14.520Z,1000.83
2022-08-26T05:20:59.151Z,1000.91
2022-08-26T05:26:45.448Z,1000.85
2022-08-26T05:32:30.077Z,1000.93
2022-08-26T05:38:16.668Z,1000.94
2022-08-26T05:44:02.299Z,1000.97
2022-08-26T05:49:51.730Z,1000.98
2022-08-26T05:55:41.714Z,1001.01
2022-08-26T06:01:28.088Z,1001.01
2022-08-26T06:07:14.520Z,1001.06
2022-08-26T06:13:11.717Z,1001.13
2022-08-26T06:19:03.171Z,1001.17
2022-08-26T06:24:56.538Z,1001.15
2022-08-26T06:30:43.442Z,1001.14
2022-08-26T06:36:34.643Z,1001.15
2022-08-26T06:42:24.250Z,1001.2
2022-08-26T06:48:23.810Z,1001.22
2022-08-26T06:54:19.650Z,1001.25
2022-08-26T07:00:22.209Z,1001.35
2022-08-26T07:06:09.823Z,1001.28
2022-08-26T07:12:09.852Z,1001.31
2022-08-26T07:18:12.348Z,1001.37
2022-08-26T07:24:04.671Z,1001.39
2022-08-26T07:29:56.470Z,1001.39
2022-08-26T07:35:41.218Z,1001.49
2022-08-26T07:41:25.430Z,1001.49
2022-08-26T07:47:26.198Z,1001.52
2022-08-26T07:53:21.121Z,1001.61
2022-08-26T07:59:15.536Z,1001.72
2022-08-26T08:05:11.648Z,1001.73
2022-08-26T08:11:12.472Z,1001.75
2022-08-26T08:17:00.680Z,1001.74
2022-08-26T08:22:48.730Z,1001.73
2022-08-26T08:28:42.694Z,1001.67
2022-08-26T08:34:35.557Z,1001.75
2022-08-26T08:40:27.000Z,1001.74
2022-08-26T08:46:23.251Z,1001.74
2022-08-26T08:52:22.128Z,1001.75
2022-08-26T08:58:23.983Z,1001.77
2022-08-26T09:04:27.403Z,1001.79
2022-08-26T09:10:36.050Z,1001.81
2022-08-26T09:16:31.303Z,1001.81
2022-08-26T09:28:14.653Z,1001.82
2022-08-26T09:34:22.962Z,1001.81
2022-08-26T09:40:21.668Z,1001.84
2022-08-26T09:46:20.823Z,1001.86
2022-08-26T09:52:21.716Z,1001.8
2022-08-26T09:58:09.854Z,1001.77
2022-08-26T10:04:03.981Z,1001.74
2022-08-26T10:09:54.534Z,1001.73
2022-08-26T10:15:54.732Z,1001.7
2022-08-26T10:21:55.143Z,1001.7
2022-08-26T10:27:53.362Z,1001.72
2022-08-26T10:33:43.635Z,1001.7
2022-08-26T10:39:34.183Z,1001.7
2022-08-26T10:45:26.661Z,1001.74
2022-08-26T10:51:18.699Z,1001.75
2022-08-26T10:57:12.843Z,1001.7
2022-08-26T11:03:21.757Z,1001.65
2022-08-26T11:09:28.766Z,1001.67
2022-08-26T11:15:25.862Z,1001.76
2022-08-26T11:21:32.163Z,1001.75
2022-08-26T11:27:31.096Z,1001.75
2022-08-26T11:33:30.929Z,1001.74
2022-08-26T11:39:20.614Z,1001.73
2022-08-26T11:45:14.930Z,1001.65
2022-08-26T11:51:04.024Z,1001.58
2022-08-26T11:56:53.211Z,1001.57
2022-08-26T12:02:48.936Z,1001.57
2022-08-26T12:08:43.116Z,1001.56
2022-08-26T12:14:33.988Z,1001.55
2022-08-26T12:20:33.207Z,1001.44
2022-08-26T12:26:32.000Z,1001.4
2022-08-26T12:32:27.348Z,1001.36
2022-08-26T12:38:20.852Z,1001.3
2022-08-26T12:44:05.751Z,1001.33
2022-08-26T12:50:06.165Z,1001.32
2022-08-26T12:55:55.658Z,1001.28
2022-08-26T13:01:45.435Z,1001.23
2022-08-26T13:07:34.966Z,1001.27
2022-08-26T13:13:19.852Z,1001.27
2022-08-26T13:19:06.073Z,1001.26
2022-08-26T13:24:58.959Z,1001.16
2022-08-26T13:30:45.732Z,1001.05
2022-08-26T13:36:40.779Z,1000.99
2022-08-26T13:42:27.068Z,1000.96
2022-08-26T13:48:20.335Z,1000.93
2022-08-26T13:54:23.086Z,1000.96
2022-08-26T14:00:12.113Z,1000.92
2022-08-26T14:05:57.287Z,1000.85
2022-08-26T14:11:54.698Z,1000.82
2022-08-26T14:17:55.303Z,1000.83
2022-08-26T14:23:41.947Z,1000.93
2022-08-26T14:29:28.367Z,1000.88
2022-08-26T14:35:17.520Z,1000.83
2022-08-26T14:41:06.103Z,1000.76
2022-08-26T14:46:53.440Z,1000.81
2022-08-26T14:52:39.926Z,1000.75
2022-08-26T14:58:35.867Z,1000.76
2022-08-26T15:04:26.063Z,1000.78
2022-08-26T15:10:15.654Z,1000.8
2022-08-26T15:16:04.015Z,1000.75
2022-08-26T15:22:00.785Z,1000.74
2022-08-26T15:27:47.711Z,1000.74
2022-08-26T15:33:32.969Z,1000.7
2022-08-26T15:39:25.271Z,1000.71
2022-08-26T15:45:24.934Z,1000.67
2022-08-26T15:51:18.412Z,1000.68
2022-08-26T15:57:09.521Z,1000.62
2022-08-26T16:03:12.162Z,1000.49
2022-08-26T16:09:10.167Z,1000.38
2022-08-26T16:15:02.550Z,1000.43
2022-08-26T16:21:12.999Z,1000.42
2022-08-26T16:26:58.706Z,1000.46
2022-08-26T16:32:49.056Z,1000.46
2022-08-26T16:38:34.480Z,1000.53
2022-08-26T16:44:19.583Z,1000.47
2022-08-26T16:50:03.531Z,1000.45
2022-08-26T16:55:50.589Z,1000.46
2022-08-26T17:01:42.349Z,1000.5
2022-08-26T17:07:26.334Z,1000.51
2022-08-26T17:13:12.025Z,1000.53
2022-08-26T17:19:11.282Z,1000.52
2022-08-26T17:24:54.824Z,1000.49
2022-08-26T17:30:38.961Z,1000.41
2022-08-26T17:36:23.382Z,1000.41
2022-08-26T17:42:12.453Z,1000.42
2022-08-26T17:47:58.502Z,1000.52
2022-08-26T17:53:42.602Z,1000.52
2022-08-26T17:59:31.751Z,1000.58
2022-08-26T18:05:16.444Z,1000.56
2022-08-26T18:11:00.705Z,1000.56
2022-08-26T18:16:46.018Z,1000.54
2022-08-26T18:22:30.498Z,1000.54
2022-08-26T18:28:14.086Z,1000.57
2022-08-26T18:33:58.855Z,1000.63
2022-08-26T18:39:43.215Z,1000.62
2022-08-26T18:45:26.627Z,1000.72
2022-08-26T18:51:15.785Z,1000.75
2022-08-26T18:57:02.701Z,1000.82
2022-08-26T19:02:55.269Z,1000.84
2022-08-26T19:08:45.501Z,1000.88
2022-08-26T19:14:35.320Z,1000.91
2022-08-26T19:20:20.472Z,1000.99
2022-08-26T19:26:05.465Z,1001
2022-08-26T19:31:48.917Z,1001.03
2022-08-26T19:37:32.294Z,1001.1
2022-08-26T19:43:20.471Z,1001.15
2022-08-26T19:49:08.314Z,1001.23
2022-08-26T19:54:53.108Z,1001.23
2022-08-26T20:00:38.918Z,1001.33
2022-08-26T20:06:22.459Z,1001.36
2022-08-26T20:12:07.718Z,1001.35
2022-08-26T20:17:53.049Z,1001.33
2022-08-26T20:23:39.365Z,1001.33
2022-08-26T20:29:24.397Z,1001.42
2022-08-26T20:35:09.688Z,1001.42
2022-08-26T20:40:57.238Z,1001.44
2022-08-26T20:46:41.290Z,1001.53
2022-08-26T20:52:25.321Z,1001.54
2022-08-26T20:58:08.829Z,1001.57
2022-08-26T21:03:53.025Z,1001.58
2022-08-26T21:09:36.782Z,1001.55
2022-08-26T21:15:25.009Z,1001.46
2022-08-26T21:21:09.506Z,1001.47
2022-08-26T21:26:53.326Z,1001.44
2022-08-26T21:32:37.019Z,1001.46
2022-08-26T21:38:20.936Z,1001.42
2022-08-26T21:44:04.544Z,1001.41
2022-08-26T21:49:49.119Z,1001.44
2022-08-26T21:55:35.878Z,1001.43
2022-08-26T22:01:20.849Z,1001.47
2022-08-26T22:07:05.714Z,1001.45
2022-08-26T22:12:52.096Z,1001.44
2022-08-26T22:18:36.126Z,1001.45
2022-08-26T22:24:21.797Z,1001.42
2022-08-26T22:30:12.629Z,1001.46
2022-08-26T22:35:56.052Z,1001.47
2022-08-26T22:41:40.327Z,1001.41
2022-08-26T22:47:23.874Z,1001.39
2022-08-26T22:53:09.586Z,1001.39
2022-08-26T22:58:53.051Z,1001.4
2022-08-26T23:04:38.719Z,1001.39
2022-08-26T23:10:22.354Z,1001.34
2022-08-26T23:16:08.492Z,1001.29
2022-08-26T23:21:52.122Z,1001.32
2022-08-26T23:27:37.678Z,1001.3
2022-08-26T23:33:21.183Z,1001.31
2022-08-26T23:39:05.546Z,1001.39
2022-08-26T23:44:50.226Z,1001.39
2022-08-26T23:50:33.887Z,1001.39
2022-08-26T23:56:19.138Z,1001.37
